Laurentian Fan: Past 24 Hour Conditions

 

Sagona Island

04:30 AM NST 26 November 2014
This table is a summary of hourly weather conditions for the past 24 hours.
Date / Time
(NST)
Wind(knots) Conditions Visibility(km) Pressure(kPa) Air tempC) Relative humidity(%) Dew pointC)
26 November 2014
4:30 WSW 20 N/A N/A 100.9 6 90 4
3:30 WSW 22 N/A N/A 100.9 6 97 6
2:30 SW 17 gust 22 N/A N/A 100.8 6 98 6
1:30 SW 14 gust 21 N/A N/A 100.7 6 98 6
0:30 SW 20 gust 25 N/A N/A 100.7 7 98 6
25 November 2014
23:30 W 21 N/A N/A 100.7 7 98 6
22:30 SW 24 gust 29 N/A N/A 100.6 7 98 6
21:30 SW 26 N/A N/A 100.6 7 98 7
20:30 SW 25 N/A N/A 100.6 7 98 7
19:30 WSW 15 gust 24 N/A N/A 100.7 7 98 7
18:30 WSW 24 gust 29 N/A N/A 100.7 7 98 7
17:30 WSW 21 gust 26 N/A N/A 100.7 8 98 7
16:30 WSW 23 N/A N/A 100.6 8 98 8
15:30 SW 15 N/A N/A 100.6 8 98 7
14:30 WNW 12 N/A N/A 100.6 7 98 7
13:30 WSW 20 N/A N/A 100.6 8 98 8
12:30 SW 31 gust 36 N/A N/A 100.5 8 98 8
11:30 SW 33 gust 39 N/A N/A 100.5 9 98 9
10:30 SSW 44 N/A N/A 100.4 11 98 10
9:30 SSW 45 gust 55 N/A N/A 100.4 11 98 10
8:30 SSW 45 gust 53 N/A N/A 100.4 11 98 11
7:30 SSW 44 gust 54 N/A N/A 100.4 11 98 10
6:30 S 46 gust 53 N/A N/A 100.3 10 97 10
5:30 S 46 gust 55 N/A N/A 100.4 10 96 10
4:30 S 43 gust 51 N/A N/A 100.6 9 95 8
 
Map of Atlantic - Newfoundland marine weather areas Southwestern Grand Banks - 44138 Banquereau - 44139 Tail of the Bank - 44140 Nickerson Bank - 44251 Northeast Burgeo Bank - 44255 Blanc-Sablon Airport Cap Whittle Chevery Natashquan Airport Heath Point Miscou Island Grand Étang Ingonish Beach North Mountain St.Paul Island J.A. Douglas McCurdy Sydney Airport Charlottetown Airport East Point North Cape Argentia Bonavista Burgeo Cape Race Corner Brook Daniel's Harbour Englee Ferolle Point La Scie Port aux Basques Rocky Harbour Sagona Island St. Anthony Airport St. John's Int'l Airport St. Lawrence Stephenville Airport Twillingate Winterland Wreckhouse Cartwright Airport Mary's Harbour Grates Cove Pool's Island Marticot Island Long Pond Îles de la Madeleine Airport
Legend: buoyBuoy land stationLand Station